createdAt,value
2018-09-24T00:01:06.341Z,2.97
2018-09-24T00:06:10.348Z,1.53
2018-09-24T00:11:14.381Z,2.00
2018-09-24T00:16:18.386Z,1.37
2018-09-24T00:21:22.456Z,2.07
2018-09-24T00:26:26.440Z,1.93
2018-09-24T00:31:30.468Z,2.97
2018-09-24T00:36:34.519Z,1.70
2018-09-24T00:41:38.913Z,2.63
2018-09-24T00:46:42.952Z,1.67
2018-09-24T00:51:47.029Z,2.20
2018-09-24T00:56:51.068Z,2.77
2018-09-24T01:01:55.152Z,3.33
2018-09-24T01:06:59.216Z,2.67
2018-09-24T01:12:03.236Z,3.10
2018-09-24T01:17:07.273Z,3.23
2018-09-24T01:22:11.313Z,4.07
2018-09-24T01:27:15.375Z,2.00
2018-09-24T01:32:19.387Z,2.97
2018-09-24T01:37:23.399Z,4.37
2018-09-24T01:42:27.427Z,2.77
2018-09-24T01:47:31.437Z,3.47
2018-09-24T01:52:35.473Z,2.90
2018-09-24T01:57:39.511Z,2.60
2018-09-24T02:02:43.545Z,1.77
2018-09-24T02:07:47.559Z,1.77
2018-09-24T02:12:53.100Z,2.30
2018-09-24T02:17:57.160Z,3.00
2018-09-24T02:23:01.191Z,2.53
2018-09-24T02:28:05.233Z,2.83
2018-09-24T02:33:12.054Z,2.00
2018-09-24T02:38:16.402Z,2.60
2018-09-24T02:43:23.833Z,1.80
2018-09-24T02:48:27.840Z,2.63
2018-09-24T02:53:39.877Z,3.27
2018-09-24T02:58:43.877Z,1.80
2018-09-24T03:03:47.912Z,3.00
2018-09-24T03:08:51.939Z,2.03
2018-09-24T03:13:55.997Z,2.70
2018-09-24T03:19:00.688Z,1.83
2018-09-24T03:24:04.712Z,2.10
2018-09-24T03:29:08.852Z,2.90
2018-09-24T03:34:14.000Z,3.60
2018-09-24T03:39:18.216Z,2.03
2018-09-24T03:44:22.248Z,2.47
2018-09-24T03:49:26.347Z,2.97
2018-09-24T03:54:30.368Z,2.03
2018-09-24T03:59:34.474Z,2.23
2018-09-24T04:04:43.777Z,1.80
2018-09-24T04:09:53.276Z,3.07
2018-09-24T04:15:02.532Z,2.40
2018-09-24T04:20:11.788Z,3.13
2018-09-24T04:25:21.237Z,2.33
2018-09-24T04:30:30.718Z,1.60
2018-09-24T04:35:40.060Z,1.93
2018-09-24T04:40:49.333Z,2.43
2018-09-24T04:45:58.816Z,1.80
2018-09-24T04:51:08.373Z,2.33
2018-09-24T04:56:17.695Z,2.47
2018-09-24T05:01:26.969Z,1.83
2018-09-24T05:06:36.347Z,1.73
2018-09-24T05:11:45.944Z,2.10
2018-09-24T05:16:55.347Z,2.63
2018-09-24T05:22:04.928Z,3.50
2018-09-24T05:27:14.269Z,2.37
2018-09-24T05:32:23.821Z,2.70
2018-09-24T05:37:33.204Z,2.57
2018-09-24T05:42:42.525Z,2.57
2018-09-24T05:47:51.870Z,2.60
2018-09-24T05:53:01.332Z,3.27
2018-09-24T05:58:10.829Z,3.00
2018-09-24T06:03:20.268Z,2.87
2018-09-24T06:08:29.483Z,1.70
2018-09-24T06:13:38.950Z,2.17
2018-09-24T06:18:48.408Z,2.83
2018-09-24T06:23:57.679Z,2.37
2018-09-24T06:29:07.104Z,2.63
2018-09-24T06:34:16.480Z,2.47
2018-09-24T06:39:25.796Z,2.00
2018-09-24T06:44:35.079Z,2.30
2018-09-24T06:49:44.580Z,3.03
2018-09-24T06:54:53.834Z,2.67
2018-09-24T07:00:03.337Z,2.90
2018-09-24T07:05:12.743Z,2.43
2018-09-24T07:10:22.220Z,2.33
2018-09-24T07:15:31.708Z,2.00
2018-09-24T07:20:41.060Z,1.80
2018-09-24T07:25:50.291Z,1.83
2018-09-24T07:30:59.699Z,2.10
2018-09-24T07:36:08.999Z,2.00
2018-09-24T07:41:18.458Z,2.03
2018-09-24T07:46:27.811Z,2.00
2018-09-24T07:51:37.243Z,1.73
2018-09-24T07:56:46.504Z,2.00
2018-09-24T08:01:55.841Z,1.77
2018-09-24T08:07:05.201Z,2.07
2018-09-24T08:12:14.493Z,1.63
2018-09-24T08:17:23.815Z,1.67
2018-09-24T08:22:33.169Z,1.80
2018-09-24T08:27:42.590Z,1.63
2018-09-24T08:32:51.934Z,1.63
2018-09-24T08:38:01.381Z,1.50
2018-09-24T08:43:10.701Z,1.73
2018-09-24T08:48:20.123Z,1.90
2018-09-24T08:53:29.520Z,1.60
2018-09-24T08:58:38.958Z,1.73
2018-09-24T09:03:48.275Z,1.47
2018-09-24T09:08:57.520Z,1.27
2018-09-24T09:14:06.908Z,1.90
2018-09-24T09:19:16.226Z,1.53
2018-09-24T09:24:25.628Z,1.80
2018-09-24T09:29:35.027Z,1.57
2018-09-24T09:34:44.389Z,1.87
2018-09-24T09:39:53.765Z,1.70
2018-09-24T09:45:03.203Z,1.30
2018-09-24T09:50:12.507Z,1.40
2018-09-24T09:55:22.040Z,1.50
2018-09-24T10:00:31.411Z,1.53
2018-09-24T10:05:40.796Z,1.77
2018-09-24T10:10:50.254Z,1.23
2018-09-24T10:15:59.748Z,1.30
2018-09-24T10:21:09.084Z,1.50
2018-09-24T10:26:18.537Z,1.20
2018-09-24T10:31:27.865Z,1.23
2018-09-24T10:36:37.276Z,1.60
2018-09-24T10:41:47.477Z,1.37
2018-09-24T10:46:56.896Z,1.50
2018-09-24T10:52:06.255Z,1.10
2018-09-24T10:57:15.732Z,1.30
2018-09-24T11:02:25.156Z,1.00
2018-09-24T11:07:34.548Z,1.00
2018-09-24T11:12:43.876Z,1.10
2018-09-24T11:17:53.379Z,1.00
2018-09-24T11:23:02.582Z,1.27
2018-09-24T11:28:11.936Z,0.97
2018-09-24T11:33:21.373Z,1.17
2018-09-24T11:38:30.691Z,1.10
2018-09-24T11:43:40.099Z,1.00
2018-09-24T11:48:49.435Z,1.33
2018-09-24T11:53:58.828Z,0.80
2018-09-24T11:59:08.109Z,1.30
2018-09-24T12:04:17.554Z,0.90
2018-09-24T12:09:26.922Z,1.17
2018-09-24T12:14:36.551Z,1.40
2018-09-24T12:19:45.860Z,1.10
2018-09-24T12:24:55.264Z,0.90
2018-09-24T12:30:04.827Z,1.40
2018-09-24T12:35:14.284Z,1.10
2018-09-24T12:40:23.575Z,1.10
2018-09-24T12:45:32.818Z,1.13
2018-09-24T12:50:42.240Z,0.90
2018-09-24T12:55:51.907Z,1.00
2018-09-24T13:01:01.315Z,0.97
2018-09-24T13:06:10.614Z,1.20
2018-09-24T13:11:20.100Z,1.60
2018-09-24T13:16:29.476Z,1.30
2018-09-24T13:21:38.803Z,1.10
2018-09-24T13:26:48.158Z,1.67
2018-09-24T13:31:57.614Z,1.40
2018-09-24T13:37:07.045Z,1.30
2018-09-24T13:42:16.524Z,1.23
2018-09-24T13:47:26.076Z,1.20
2018-09-24T13:52:35.423Z,1.43
2018-09-24T13:57:44.844Z,1.00
2018-09-24T14:02:54.106Z,1.13
2018-09-24T14:08:03.551Z,1.20
2018-09-24T14:13:12.941Z,0.90
2018-09-24T14:18:22.386Z,1.27
2018-09-24T14:23:31.976Z,1.10
2018-09-24T14:28:41.331Z,1.50
2018-09-24T14:33:50.888Z,1.53
2018-09-24T14:39:00.428Z,1.80
2018-09-24T14:44:09.969Z,1.40
2018-09-24T14:49:19.427Z,1.40
2018-09-24T14:54:28.682Z,1.50
2018-09-24T14:59:38.102Z,1.47
2018-09-24T15:04:47.481Z,1.27
2018-09-24T15:09:56.820Z,1.83
2018-09-24T15:15:06.095Z,1.83
2018-09-24T15:20:15.564Z,1.40
2018-09-24T15:25:25.133Z,1.50
2018-09-24T15:30:34.560Z,1.67
2018-09-24T15:35:44.088Z,1.20
2018-09-24T15:40:53.476Z,1.50
2018-09-24T15:46:02.905Z,1.87
2018-09-24T15:51:12.212Z,2.03
2018-09-24T15:56:21.489Z,2.10
2018-09-24T16:01:30.926Z,2.33
2018-09-24T16:06:40.319Z,2.50
2018-09-24T16:11:49.723Z,1.90
2018-09-24T16:16:59.110Z,3.00
2018-09-24T16:22:08.421Z,1.87
2018-09-24T16:27:17.896Z,2.23
2018-09-24T16:32:27.272Z,1.97
2018-09-24T16:37:36.856Z,1.50
2018-09-24T16:42:46.478Z,1.57
2018-09-24T16:47:55.843Z,1.87
2018-09-24T16:53:06.368Z,1.50
2018-09-24T16:58:15.815Z,1.37
2018-09-24T17:03:25.221Z,1.57
2018-09-24T17:08:34.526Z,1.80
2018-09-24T17:13:43.879Z,1.50
2018-09-24T17:18:53.976Z,1.30
2018-09-24T17:24:03.451Z,1.70
2018-09-24T17:29:13.529Z,1.27
2018-09-24T17:34:22.895Z,1.97
2018-09-24T17:39:32.246Z,1.83
2018-09-24T17:44:41.746Z,1.60
2018-09-24T17:49:51.076Z,1.60
2018-09-24T17:55:00.608Z,2.00
2018-09-24T18:00:10.220Z,1.70
2018-09-24T18:05:19.703Z,1.90
2018-09-24T18:10:29.278Z,2.20
2018-09-24T18:15:38.933Z,1.30
2018-09-24T18:20:48.271Z,2.00
2018-09-24T18:25:57.728Z,1.80
2018-09-24T18:31:07.170Z,2.10
2018-09-24T18:36:16.635Z,2.20
2018-09-24T18:41:26.166Z,1.87
2018-09-24T18:46:35.536Z,2.37
2018-09-24T18:51:45.076Z,2.10
2018-09-24T18:56:54.416Z,2.30
2018-09-24T19:02:03.881Z,2.27
2018-09-24T19:07:13.311Z,2.90
2018-09-24T19:12:22.744Z,2.33
2018-09-24T19:17:31.993Z,2.20
2018-09-24T19:22:41.943Z,2.20
2018-09-24T19:27:51.322Z,2.50
2018-09-24T19:33:00.688Z,1.50
2018-09-24T19:38:10.282Z,1.57
2018-09-24T19:43:19.918Z,1.57
2018-09-24T19:48:29.229Z,1.60
2018-09-24T19:53:38.668Z,1.40
2018-09-24T19:58:48.205Z,1.90
2018-09-24T20:03:57.626Z,1.60
2018-09-24T20:09:07.295Z,1.80
2018-09-24T20:14:16.809Z,2.10
2018-09-24T20:19:26.156Z,2.00
2018-09-24T20:24:35.638Z,2.07
2018-09-24T20:29:45.256Z,2.53
2018-09-24T20:34:54.797Z,2.47
2018-09-24T20:40:04.317Z,2.37
2018-09-24T20:45:13.873Z,2.33
2018-09-24T20:50:23.546Z,2.50
2018-09-24T20:55:32.967Z,3.10
2018-09-24T21:00:42.657Z,2.80
2018-09-24T21:05:52.401Z,2.90
2018-09-24T21:11:01.595Z,2.37
2018-09-24T21:16:11.516Z,1.93
2018-09-24T21:21:21.127Z,2.00
2018-09-24T21:26:30.592Z,2.10
2018-09-24T21:31:40.008Z,2.17
2018-09-24T21:36:49.496Z,2.27
2018-09-24T21:41:58.873Z,1.80
2018-09-24T21:47:08.304Z,2.33
2018-09-24T21:52:17.876Z,2.37
2018-09-24T21:57:27.303Z,2.17
2018-09-24T22:02:36.768Z,2.37
2018-09-24T22:07:46.190Z,1.80
2018-09-24T22:12:55.777Z,2.50
2018-09-24T22:18:05.377Z,2.23
2018-09-24T22:23:14.854Z,2.00
2018-09-24T22:28:24.233Z,2.40
2018-09-24T22:33:33.819Z,2.53
2018-09-24T22:38:43.402Z,2.73
2018-09-24T22:44:00.172Z,2.60
2018-09-24T22:49:09.499Z,2.40
2018-09-24T22:54:18.992Z,2.47
2018-09-24T22:59:28.605Z,2.53
2018-09-24T23:04:38.204Z,3.33
2018-09-24T23:09:47.628Z,2.83
2018-09-24T23:14:57.116Z,2.90
2018-09-24T23:20:06.615Z,2.60
2018-09-24T23:25:16.132Z,2.33
2018-09-24T23:30:25.737Z,2.70
2018-09-24T23:35:35.350Z,2.63
2018-09-24T23:40:44.776Z,2.83
2018-09-24T23:45:54.145Z,2.50
2018-09-24T23:51:03.578Z,2.60
2018-09-24T23:56:13.255Z,2.57
